sensor_id;sensor_type;location;lat;lon;timestamp;P1;durP1;ratioP1;P2;durP2;ratioP2
29984;SDS011;17387;42.690;23.328;2023-05-21T00:00:58;30.05;;;17.40;;
29984;SDS011;17387;42.690;23.328;2023-05-21T00:03:24;25.77;;;17.70;;
29984;SDS011;17387;42.690;23.328;2023-05-21T00:05:54;26.08;;;17.73;;
29984;SDS011;17387;42.690;23.328;2023-05-21T00:08:19;25.65;;;17.20;;
29984;SDS011;17387;42.690;23.328;2023-05-21T00:10:45;24.02;;;17.80;;
29984;SDS011;17387;42.690;23.328;2023-05-21T00:13:10;23.92;;;17.38;;
29984;SDS011;17387;42.690;23.328;2023-05-21T00:15:36;26.90;;;16.20;;
29984;SDS011;17387;42.690;23.328;2023-05-21T00:18:01;23.17;;;16.73;;
29984;SDS011;17387;42.690;23.328;2023-05-21T00:20:26;27.77;;;17.58;;
29984;SDS011;17387;42.690;23.328;2023-05-21T00:22:53;24.42;;;16.77;;
29984;SDS011;17387;42.690;23.328;2023-05-21T00:25:18;26.17;;;17.95;;
29984;SDS011;17387;42.690;23.328;2023-05-21T00:27:44;22.95;;;16.27;;
29984;SDS011;17387;42.690;23.328;2023-05-21T00:30:09;27.00;;;17.73;;
29984;SDS011;17387;42.690;23.328;2023-05-21T00:32:34;26.15;;;17.35;;
29984;SDS011;17387;42.690;23.328;2023-05-21T00:35:00;27.75;;;17.88;;
29984;SDS011;17387;42.690;23.328;2023-05-21T00:37:26;27.02;;;16.98;;
29984;SDS011;17387;42.690;23.328;2023-05-21T00:39:56;30.25;;;17.55;;
29984;SDS011;17387;42.690;23.328;2023-05-21T00:42:21;22.90;;;16.80;;
29984;SDS011;17387;42.690;23.328;2023-05-21T00:44:51;24.88;;;17.90;;
29984;SDS011;17387;42.690;23.328;2023-05-21T00:47:18;25.55;;;17.70;;
29984;SDS011;17387;42.690;23.328;2023-05-21T00:49:45;24.15;;;18.13;;
29984;SDS011;17387;42.690;23.328;2023-05-21T00:52:12;23.27;;;17.13;;
29984;SDS011;17387;42.690;23.328;2023-05-21T00:54:37;24.98;;;18.02;;
29984;SDS011;17387;42.690;23.328;2023-05-21T00:57:03;24.17;;;17.27;;
29984;SDS011;17387;42.690;23.328;2023-05-21T00:59:28;27.88;;;17.60;;
29984;SDS011;17387;42.690;23.328;2023-05-21T01:01:55;21.45;;;16.33;;
29984;SDS011;17387;42.690;23.328;2023-05-21T01:04:23;26.23;;;17.33;;
29984;SDS011;17387;42.690;23.328;2023-05-21T01:06:48;23.67;;;17.25;;
29984;SDS011;17387;42.690;23.328;2023-05-21T01:09:14;21.60;;;16.23;;
29984;SDS011;17387;42.690;23.328;2023-05-21T01:11:40;23.33;;;16.90;;
29984;SDS011;17387;42.690;23.328;2023-05-21T01:14:07;25.08;;;17.92;;
29984;SDS011;17387;42.690;23.328;2023-05-21T01:16:34;24.00;;;17.23;;
29984;SDS011;17387;42.690;23.328;2023-05-21T01:19:01;23.80;;;17.05;;
29984;SDS011;17387;42.690;23.328;2023-05-21T01:21:27;23.05;;;16.40;;
29984;SDS011;17387;42.690;23.328;2023-05-21T01:23:53;20.73;;;16.08;;
29984;SDS011;17387;42.690;23.328;2023-05-21T01:26:18;19.20;;;14.85;;
29984;SDS011;17387;42.690;23.328;2023-05-21T01:28:43;21.38;;;15.43;;
29984;SDS011;17387;42.690;23.328;2023-05-21T01:31:14;24.60;;;15.67;;
29984;SDS011;17387;42.690;23.328;2023-05-21T01:36:07;25.93;;;17.63;;
29984;SDS011;17387;42.690;23.328;2023-05-21T01:38:36;22.48;;;17.08;;
29984;SDS011;17387;42.690;23.328;2023-05-21T01:41:11;26.95;;;17.05;;
29984;SDS011;17387;42.690;23.328;2023-05-21T01:43:37;24.80;;;18.10;;
29984;SDS011;17387;42.690;23.328;2023-05-21T01:46:03;26.17;;;18.20;;
29984;SDS011;17387;42.690;23.328;2023-05-21T01:48:29;26.80;;;17.98;;
29984;SDS011;17387;42.690;23.328;2023-05-21T01:50:56;25.15;;;17.10;;
29984;SDS011;17387;42.690;23.328;2023-05-21T01:53:22;24.27;;;17.15;;
29984;SDS011;17387;42.690;23.328;2023-05-21T01:55:47;23.65;;;17.00;;
29984;SDS011;17387;42.690;23.328;2023-05-21T01:58:13;23.40;;;15.57;;
29984;SDS011;17387;42.690;23.328;2023-05-21T02:00:39;23.80;;;14.93;;
29984;SDS011;17387;42.690;23.328;2023-05-21T02:03:05;25.80;;;15.23;;
29984;SDS011;17387;42.690;23.328;2023-05-21T02:05:30;23.40;;;14.10;;
29984;SDS011;17387;42.690;23.328;2023-05-21T02:07:55;18.50;;;13.40;;
29984;SDS011;17387;42.690;23.328;2023-05-21T02:10:21;17.73;;;12.60;;
29984;SDS011;17387;42.690;23.328;2023-05-21T02:12:46;17.15;;;12.30;;
29984;SDS011;17387;42.690;23.328;2023-05-21T02:15:11;18.97;;;12.80;;
29984;SDS011;17387;42.690;23.328;2023-05-21T02:17:38;15.93;;;12.27;;
29984;SDS011;17387;42.690;23.328;2023-05-21T02:20:04;19.48;;;12.82;;
29984;SDS011;17387;42.690;23.328;2023-05-21T02:22:40;17.58;;;12.65;;
29984;SDS011;17387;42.690;23.328;2023-05-21T02:25:06;19.63;;;13.52;;
29984;SDS011;17387;42.690;23.328;2023-05-21T02:27:32;20.08;;;13.25;;
29984;SDS011;17387;42.690;23.328;2023-05-21T02:29:59;19.08;;;13.10;;
29984;SDS011;17387;42.690;23.328;2023-05-21T02:32:24;19.90;;;12.90;;
29984;SDS011;17387;42.690;23.328;2023-05-21T02:34:49;21.47;;;13.43;;
29984;SDS011;17387;42.690;23.328;2023-05-21T02:37:15;18.73;;;12.65;;
29984;SDS011;17387;42.690;23.328;2023-05-21T02:39:41;19.83;;;12.80;;
29984;SDS011;17387;42.690;23.328;2023-05-21T02:42:06;18.27;;;12.93;;
29984;SDS011;17387;42.690;23.328;2023-05-21T02:44:31;18.80;;;12.60;;
29984;SDS011;17387;42.690;23.328;2023-05-21T02:46:57;19.05;;;13.40;;
29984;SDS011;17387;42.690;23.328;2023-05-21T02:49:22;17.50;;;12.50;;
29984;SDS011;17387;42.690;23.328;2023-05-21T02:51:47;20.53;;;13.47;;
29984;SDS011;17387;42.690;23.328;2023-05-21T02:54:13;20.30;;;12.88;;
29984;SDS011;17387;42.690;23.328;2023-05-21T02:56:38;17.90;;;12.82;;
29984;SDS011;17387;42.690;23.328;2023-05-21T02:59:03;19.10;;;14.15;;
29984;SDS011;17387;42.690;23.328;2023-05-21T03:01:29;18.92;;;14.10;;
29984;SDS011;17387;42.690;23.328;2023-05-21T03:03:54;22.73;;;14.88;;
29984;SDS011;17387;42.690;23.328;2023-05-21T03:06:19;23.23;;;14.75;;
29984;SDS011;17387;42.690;23.328;2023-05-21T03:08:44;26.73;;;15.17;;
29984;SDS011;17387;42.690;23.328;2023-05-21T03:11:10;20.70;;;15.30;;
29984;SDS011;17387;42.690;23.328;2023-05-21T03:13:35;23.92;;;15.75;;
29984;SDS011;17387;42.690;23.328;2023-05-21T03:16:00;25.40;;;15.23;;
29984;SDS011;17387;42.690;23.328;2023-05-21T03:18:25;21.55;;;15.63;;
29984;SDS011;17387;42.690;23.328;2023-05-21T03:20:51;22.20;;;15.10;;
29984;SDS011;17387;42.690;23.328;2023-05-21T03:23:16;22.52;;;16.05;;
29984;SDS011;17387;42.690;23.328;2023-05-21T03:25:42;22.08;;;13.85;;
29984;SDS011;17387;42.690;23.328;2023-05-21T03:28:07;19.35;;;13.93;;
29984;SDS011;17387;42.690;23.328;2023-05-21T03:30:34;19.88;;;12.70;;
29984;SDS011;17387;42.690;23.328;2023-05-21T03:33:00;21.92;;;13.32;;
29984;SDS011;17387;42.690;23.328;2023-05-21T03:35:27;22.45;;;13.30;;
29984;SDS011;17387;42.690;23.328;2023-05-21T03:37:52;20.08;;;12.73;;
29984;SDS011;17387;42.690;23.328;2023-05-21T03:40:17;20.67;;;13.30;;
29984;SDS011;17387;42.690;23.328;2023-05-21T03:42:42;18.60;;;11.87;;
29984;SDS011;17387;42.690;23.328;2023-05-21T03:45:08;15.93;;;12.40;;
29984;SDS011;17387;42.690;23.328;2023-05-21T03:47:33;17.67;;;12.18;;
29984;SDS011;17387;42.690;23.328;2023-05-21T03:50:00;19.60;;;12.93;;
29984;SDS011;17387;42.690;23.328;2023-05-21T03:52:25;20.65;;;12.27;;
29984;SDS011;17387;42.690;23.328;2023-05-21T03:54:50;22.93;;;12.30;;
29984;SDS011;17387;42.690;23.328;2023-05-21T03:57:15;17.40;;;11.68;;
29984;SDS011;17387;42.690;23.328;2023-05-21T03:59:41;23.17;;;12.85;;
29984;SDS011;17387;42.690;23.328;2023-05-21T04:02:06;21.80;;;12.77;;
29984;SDS011;17387;42.690;23.328;2023-05-21T04:04:31;24.03;;;12.67;;
29984;SDS011;17387;42.690;23.328;2023-05-21T04:06:57;22.23;;;13.45;;
29984;SDS011;17387;42.690;23.328;2023-05-21T04:09:23;21.85;;;14.55;;
29984;SDS011;17387;42.690;23.328;2023-05-21T04:11:48;18.10;;;12.40;;
29984;SDS011;17387;42.690;23.328;2023-05-21T04:14:14;18.55;;;13.05;;
29984;SDS011;17387;42.690;23.328;2023-05-21T04:16:39;18.07;;;12.20;;
29984;SDS011;17387;42.690;23.328;2023-05-21T04:19:08;19.70;;;12.60;;
29984;SDS011;17387;42.690;23.328;2023-05-21T04:21:33;25.98;;;12.77;;
29984;SDS011;17387;42.690;23.328;2023-05-21T04:23:58;21.13;;;12.30;;
29984;SDS011;17387;42.690;23.328;2023-05-21T04:26:24;18.27;;;12.80;;
29984;SDS011;17387;42.690;23.328;2023-05-21T04:28:50;21.08;;;13.52;;
29984;SDS011;17387;42.690;23.328;2023-05-21T04:31:15;23.47;;;14.23;;
29984;SDS011;17387;42.690;23.328;2023-05-21T04:33:40;22.92;;;13.77;;
29984;SDS011;17387;42.690;23.328;2023-05-21T04:36:06;25.10;;;13.27;;
29984;SDS011;17387;42.690;23.328;2023-05-21T04:38:33;20.90;;;13.18;;
29984;SDS011;17387;42.690;23.328;2023-05-21T04:41:01;20.27;;;13.68;;
29984;SDS011;17387;42.690;23.328;2023-05-21T04:43:28;23.15;;;13.95;;
29984;SDS011;17387;42.690;23.328;2023-05-21T04:45:53;20.77;;;13.30;;
29984;SDS011;17387;42.690;23.328;2023-05-21T04:48:22;20.70;;;13.50;;
29984;SDS011;17387;42.690;23.328;2023-05-21T04:50:56;21.60;;;12.88;;
29984;SDS011;17387;42.690;23.328;2023-05-21T04:53:22;20.77;;;13.07;;
29984;SDS011;17387;42.690;23.328;2023-05-21T04:55:47;20.88;;;14.73;;
29984;SDS011;17387;42.690;23.328;2023-05-21T04:58:13;18.08;;;13.30;;
29984;SDS011;17387;42.690;23.328;2023-05-21T05:00:38;19.02;;;13.77;;
29984;SDS011;17387;42.690;23.328;2023-05-21T05:03:06;21.55;;;13.77;;
29984;SDS011;17387;42.690;23.328;2023-05-21T05:05:31;17.48;;;12.02;;
29984;SDS011;17387;42.690;23.328;2023-05-21T05:07:56;18.55;;;11.45;;
29984;SDS011;17387;42.690;23.328;2023-05-21T05:10:22;19.92;;;11.40;;
29984;SDS011;17387;42.690;23.328;2023-05-21T05:12:47;14.20;;;10.48;;
29984;SDS011;17387;42.690;23.328;2023-05-21T05:15:12;16.67;;;10.80;;
29984;SDS011;17387;42.690;23.328;2023-05-21T05:17:38;16.07;;;10.27;;
29984;SDS011;17387;42.690;23.328;2023-05-21T05:20:04;15.35;;;9.77;;
29984;SDS011;17387;42.690;23.328;2023-05-21T05:22:29;18.25;;;10.63;;
29984;SDS011;17387;42.690;23.328;2023-05-21T05:24:55;20.00;;;10.70;;
29984;SDS011;17387;42.690;23.328;2023-05-21T05:27:20;14.48;;;10.30;;
29984;SDS011;17387;42.690;23.328;2023-05-21T05:29:45;16.63;;;9.93;;
29984;SDS011;17387;42.690;23.328;2023-05-21T05:32:11;16.73;;;9.52;;
29984;SDS011;17387;42.690;23.328;2023-05-21T05:34:36;15.73;;;9.95;;
29984;SDS011;17387;42.690;23.328;2023-05-21T05:37:01;14.13;;;9.57;;
29984;SDS011;17387;42.690;23.328;2023-05-21T05:39:28;16.02;;;9.82;;
29984;SDS011;17387;42.690;23.328;2023-05-21T05:41:53;12.98;;;9.18;;
29984;SDS011;17387;42.690;23.328;2023-05-21T05:44:18;11.63;;;9.60;;
29984;SDS011;17387;42.690;23.328;2023-05-21T05:46:43;14.97;;;10.47;;
29984;SDS011;17387;42.690;23.328;2023-05-21T05:49:09;11.95;;;9.55;;
29984;SDS011;17387;42.690;23.328;2023-05-21T05:51:34;15.52;;;9.23;;
29984;SDS011;17387;42.690;23.328;2023-05-21T05:54:00;15.23;;;10.55;;
29984;SDS011;17387;42.690;23.328;2023-05-21T05:56:25;19.13;;;10.48;;
29984;SDS011;17387;42.690;23.328;2023-05-21T05:58:50;20.20;;;10.77;;
29984;SDS011;17387;42.690;23.328;2023-05-21T06:01:16;15.50;;;9.85;;
29984;SDS011;17387;42.690;23.328;2023-05-21T06:03:41;12.88;;;9.63;;
29984;SDS011;17387;42.690;23.328;2023-05-21T06:06:06;15.03;;;9.37;;
29984;SDS011;17387;42.690;23.328;2023-05-21T06:08:31;16.07;;;9.03;;
29984;SDS011;17387;42.690;23.328;2023-05-21T06:10:58;16.17;;;9.13;;
29984;SDS011;17387;42.690;23.328;2023-05-21T06:13:23;16.83;;;9.38;;
29984;SDS011;17387;42.690;23.328;2023-05-21T06:15:49;15.63;;;9.40;;
29984;SDS011;17387;42.690;23.328;2023-05-21T06:18:15;11.75;;;7.18;;
29984;SDS011;17387;42.690;23.328;2023-05-21T06:20:40;10.07;;;7.55;;
29984;SDS011;17387;42.690;23.328;2023-05-21T06:23:06;13.60;;;7.80;;
29984;SDS011;17387;42.690;23.328;2023-05-21T06:25:32;13.80;;;7.82;;
29984;SDS011;17387;42.690;23.328;2023-05-21T06:27:58;12.65;;;7.72;;
29984;SDS011;17387;42.690;23.328;2023-05-21T06:30:23;13.00;;;7.50;;
29984;SDS011;17387;42.690;23.328;2023-05-21T06:32:48;10.37;;;7.97;;
29984;SDS011;17387;42.690;23.328;2023-05-21T06:35:13;12.23;;;7.27;;
29984;SDS011;17387;42.690;23.328;2023-05-21T06:37:39;10.40;;;7.00;;
29984;SDS011;17387;42.690;23.328;2023-05-21T06:40:04;15.38;;;6.80;;
29984;SDS011;17387;42.690;23.328;2023-05-21T06:42:29;12.32;;;7.03;;
29984;SDS011;17387;42.690;23.328;2023-05-21T06:44:55;15.65;;;7.30;;
29984;SDS011;17387;42.690;23.328;2023-05-21T06:47:20;16.17;;;7.57;;
29984;SDS011;17387;42.690;23.328;2023-05-21T06:49:45;15.70;;;7.70;;
29984;SDS011;17387;42.690;23.328;2023-05-21T06:52:10;11.53;;;7.17;;
29984;SDS011;17387;42.690;23.328;2023-05-21T06:54:36;11.38;;;6.30;;
29984;SDS011;17387;42.690;23.328;2023-05-21T06:57:01;13.03;;;6.97;;
29984;SDS011;17387;42.690;23.328;2023-05-21T06:59:26;11.88;;;6.85;;
29984;SDS011;17387;42.690;23.328;2023-05-21T07:01:51;10.68;;;6.93;;
29984;SDS011;17387;42.690;23.328;2023-05-21T07:04:17;9.47;;;6.57;;
29984;SDS011;17387;42.690;23.328;2023-05-21T07:06:42;12.33;;;7.70;;
29984;SDS011;17387;42.690;23.328;2023-05-21T07:09:07;15.97;;;7.77;;
29984;SDS011;17387;42.690;23.328;2023-05-21T07:11:35;10.70;;;7.25;;
29984;SDS011;17387;42.690;23.328;2023-05-21T07:14:01;29.48;;;17.92;;
29984;SDS011;17387;42.690;23.328;2023-05-21T07:16:26;16.07;;;7.27;;
29984;SDS011;17387;42.690;23.328;2023-05-21T07:18:51;27.67;;;17.30;;
29984;SDS011;17387;42.690;23.328;2023-05-21T07:21:16;17.55;;;10.20;;
29984;SDS011;17387;42.690;23.328;2023-05-21T07:23:42;17.93;;;12.10;;
29984;SDS011;17387;42.690;23.328;2023-05-21T07:26:08;40.27;;;18.17;;
29984;SDS011;17387;42.690;23.328;2023-05-21T07:28:34;69.40;;;33.40;;
29984;SDS011;17387;42.690;23.328;2023-05-21T07:30:59;18.88;;;11.52;;
29984;SDS011;17387;42.690;23.328;2023-05-21T07:33:25;13.35;;;8.20;;
29984;SDS011;17387;42.690;23.328;2023-05-21T07:35:50;11.10;;;7.55;;
29984;SDS011;17387;42.690;23.328;2023-05-21T07:38:16;26.27;;;15.73;;
29984;SDS011;17387;42.690;23.328;2023-05-21T07:40:41;12.18;;;7.18;;
29984;SDS011;17387;42.690;23.328;2023-05-21T07:43:06;15.82;;;9.15;;
29984;SDS011;17387;42.690;23.328;2023-05-21T07:45:32;14.57;;;8.23;;
29984;SDS011;17387;42.690;23.328;2023-05-21T07:47:57;23.73;;;10.83;;
29984;SDS011;17387;42.690;23.328;2023-05-21T07:50:22;9.57;;;6.40;;
29984;SDS011;17387;42.690;23.328;2023-05-21T07:52:48;12.27;;;6.90;;
29984;SDS011;17387;42.690;23.328;2023-05-21T07:55:13;17.33;;;10.90;;
29984;SDS011;17387;42.690;23.328;2023-05-21T07:57:38;11.83;;;6.10;;
29984;SDS011;17387;42.690;23.328;2023-05-21T08:00:03;11.43;;;5.60;;
29984;SDS011;17387;42.690;23.328;2023-05-21T08:02:33;11.70;;;5.63;;
29984;SDS011;17387;42.690;23.328;2023-05-21T08:04:58;10.10;;;5.00;;
29984;SDS011;17387;42.690;23.328;2023-05-21T08:07:25;10.38;;;6.55;;
29984;SDS011;17387;42.690;23.328;2023-05-21T08:09:51;7.50;;;4.63;;
29984;SDS011;17387;42.690;23.328;2023-05-21T08:12:18;9.38;;;4.78;;
29984;SDS011;17387;42.690;23.328;2023-05-21T08:14:43;12.90;;;5.93;;
29984;SDS011;17387;42.690;23.328;2023-05-21T08:17:08;14.03;;;7.10;;
29984;SDS011;17387;42.690;23.328;2023-05-21T08:19:35;10.60;;;5.88;;
29984;SDS011;17387;42.690;23.328;2023-05-21T08:22:00;7.53;;;4.97;;
29984;SDS011;17387;42.690;23.328;2023-05-21T08:24:25;10.75;;;4.40;;
29984;SDS011;17387;42.690;23.328;2023-05-21T08:26:51;7.37;;;4.10;;
29984;SDS011;17387;42.690;23.328;2023-05-21T08:29:19;6.78;;;4.55;;
29984;SDS011;17387;42.690;23.328;2023-05-21T08:31:47;11.07;;;5.57;;
29984;SDS011;17387;42.690;23.328;2023-05-21T08:34:13;7.43;;;4.60;;
29984;SDS011;17387;42.690;23.328;2023-05-21T08:36:38;12.00;;;5.72;;
29984;SDS011;17387;42.690;23.328;2023-05-21T08:39:06;10.23;;;4.78;;
29984;SDS011;17387;42.690;23.328;2023-05-21T08:41:32;7.68;;;4.53;;
29984;SDS011;17387;42.690;23.328;2023-05-21T08:44:00;12.70;;;6.18;;
29984;SDS011;17387;42.690;23.328;2023-05-21T08:46:25;8.93;;;4.20;;
29984;SDS011;17387;42.690;23.328;2023-05-21T08:48:52;7.38;;;4.32;;
29984;SDS011;17387;42.690;23.328;2023-05-21T08:51:20;8.38;;;4.75;;
29984;SDS011;17387;42.690;23.328;2023-05-21T08:53:45;8.98;;;4.07;;
29984;SDS011;17387;42.690;23.328;2023-05-21T08:56:11;6.43;;;4.50;;
29984;SDS011;17387;42.690;23.328;2023-05-21T08:58:37;9.52;;;4.38;;
29984;SDS011;17387;42.690;23.328;2023-05-21T09:01:04;6.00;;;4.53;;
29984;SDS011;17387;42.690;23.328;2023-05-21T09:03:29;9.18;;;4.43;;
29984;SDS011;17387;42.690;23.328;2023-05-21T09:05:55;9.18;;;4.85;;
29984;SDS011;17387;42.690;23.328;2023-05-21T09:08:23;10.00;;;6.20;;
29984;SDS011;17387;42.690;23.328;2023-05-21T09:10:51;7.30;;;4.38;;
29984;SDS011;17387;42.690;23.328;2023-05-21T09:13:17;11.00;;;4.90;;
29984;SDS011;17387;42.690;23.328;2023-05-21T09:15:43;8.73;;;5.10;;
29984;SDS011;17387;42.690;23.328;2023-05-21T09:18:08;9.50;;;4.80;;
29984;SDS011;17387;42.690;23.328;2023-05-21T09:20:33;8.10;;;4.90;;
29984;SDS011;17387;42.690;23.328;2023-05-21T09:23:01;12.88;;;5.55;;
29984;SDS011;17387;42.690;23.328;2023-05-21T09:25:27;13.68;;;5.20;;
29984;SDS011;17387;42.690;23.328;2023-05-21T09:27:56;11.55;;;4.85;;
29984;SDS011;17387;42.690;23.328;2023-05-21T09:30:21;8.98;;;4.63;;
29984;SDS011;17387;42.690;23.328;2023-05-21T09:32:50;9.97;;;5.50;;
29984;SDS011;17387;42.690;23.328;2023-05-21T09:35:16;12.13;;;5.10;;
29984;SDS011;17387;42.690;23.328;2023-05-21T09:37:42;9.13;;;5.63;;
29984;SDS011;17387;42.690;23.328;2023-05-21T09:40:09;8.85;;;4.75;;
29984;SDS011;17387;42.690;23.328;2023-05-21T09:42:37;14.55;;;6.97;;
29984;SDS011;17387;42.690;23.328;2023-05-21T09:45:02;10.20;;;4.28;;
29984;SDS011;17387;42.690;23.328;2023-05-21T09:47:28;14.60;;;6.28;;
29984;SDS011;17387;42.690;23.328;2023-05-21T09:49:56;12.63;;;5.07;;
29984;SDS011;17387;42.690;23.328;2023-05-21T09:52:22;10.35;;;4.80;;
29984;SDS011;17387;42.690;23.328;2023-05-21T09:54:48;8.82;;;4.03;;
29984;SDS011;17387;42.690;23.328;2023-05-21T09:57:15;10.00;;;4.28;;
29984;SDS011;17387;42.690;23.328;2023-05-21T09:59:40;5.07;;;3.90;;
29984;SDS011;17387;42.690;23.328;2023-05-21T10:02:13;5.70;;;3.60;;
29984;SDS011;17387;42.690;23.328;2023-05-21T10:04:39;8.30;;;5.63;;
29984;SDS011;17387;42.690;23.328;2023-05-21T10:07:05;11.68;;;4.35;;
29984;SDS011;17387;42.690;23.328;2023-05-21T10:09:31;8.25;;;4.82;;
29984;SDS011;17387;42.690;23.328;2023-05-21T10:11:56;9.32;;;4.20;;
29984;SDS011;17387;42.690;23.328;2023-05-21T10:14:24;8.52;;;4.80;;
29984;SDS011;17387;42.690;23.328;2023-05-21T10:16:49;9.82;;;4.22;;
29984;SDS011;17387;42.690;23.328;2023-05-21T10:19:18;10.52;;;5.47;;
29984;SDS011;17387;42.690;23.328;2023-05-21T10:21:44;13.90;;;5.60;;
29984;SDS011;17387;42.690;23.328;2023-05-21T10:24:09;17.55;;;5.85;;
29984;SDS011;17387;42.690;23.328;2023-05-21T10:26:35;33.92;;;16.58;;
29984;SDS011;17387;42.690;23.328;2023-05-21T10:29:00;12.80;;;7.80;;
29984;SDS011;17387;42.690;23.328;2023-05-21T10:31:26;13.40;;;6.95;;
29984;SDS011;17387;42.690;23.328;2023-05-21T10:33:55;22.40;;;13.10;;
29984;SDS011;17387;42.690;23.328;2023-05-21T10:36:20;12.82;;;6.32;;
29984;SDS011;17387;42.690;23.328;2023-05-21T10:38:48;10.45;;;6.63;;
29984;SDS011;17387;42.690;23.328;2023-05-21T10:41:14;16.65;;;7.20;;
29984;SDS011;17387;42.690;23.328;2023-05-21T10:56:24;11.18;;;7.05;;
29984;SDS011;17387;42.690;23.328;2023-05-21T10:59:12;14.70;;;6.07;;
29984;SDS011;17387;42.690;23.328;2023-05-21T11:01:42;32.13;;;14.88;;
29984;SDS011;17387;42.690;23.328;2023-05-21T11:04:09;12.50;;;8.05;;
29984;SDS011;17387;42.690;23.328;2023-05-21T11:06:36;11.60;;;8.07;;
29984;SDS011;17387;42.690;23.328;2023-05-21T11:09:10;21.77;;;13.85;;
29984;SDS011;17387;42.690;23.328;2023-05-21T11:11:45;16.27;;;7.32;;
29984;SDS011;17387;42.690;23.328;2023-05-21T11:17:14;12.60;;;8.27;;
29984;SDS011;17387;42.690;23.328;2023-05-21T11:19:40;21.73;;;13.15;;
29984;SDS011;17387;42.690;23.328;2023-05-21T11:22:06;16.08;;;7.50;;
29984;SDS011;17387;42.690;23.328;2023-05-21T11:24:32;27.75;;;15.50;;
29984;SDS011;17387;42.690;23.328;2023-05-21T11:27:01;13.07;;;7.30;;
29984;SDS011;17387;42.690;23.328;2023-05-21T11:29:31;10.68;;;6.93;;
29984;SDS011;17387;42.690;23.328;2023-05-21T11:32:00;70.43;;;33.55;;
29984;SDS011;17387;42.690;23.328;2023-05-21T11:34:31;15.90;;;8.57;;
29984;SDS011;17387;42.690;23.328;2023-05-21T11:39:42;8.40;;;5.17;;
29984;SDS011;17387;42.690;23.328;2023-05-21T11:42:07;23.20;;;11.90;;
29984;SDS011;17387;42.690;23.328;2023-05-21T11:44:42;16.55;;;7.22;;
29984;SDS011;17387;42.690;23.328;2023-05-21T11:47:08;12.13;;;5.40;;
29984;SDS011;17387;42.690;23.328;2023-05-21T11:49:34;9.65;;;4.63;;
29984;SDS011;17387;42.690;23.328;2023-05-21T11:52:00;26.55;;;14.32;;
29984;SDS011;17387;42.690;23.328;2023-05-21T11:54:26;12.30;;;7.25;;
29984;SDS011;17387;42.690;23.328;2023-05-21T11:56:51;10.70;;;6.47;;
29984;SDS011;17387;42.690;23.328;2023-05-21T11:59:18;16.95;;;10.02;;
29984;SDS011;17387;42.690;23.328;2023-05-21T12:01:44;21.60;;;11.73;;
29984;SDS011;17387;42.690;23.328;2023-05-21T12:04:10;15.82;;;7.82;;
29984;SDS011;17387;42.690;23.328;2023-05-21T12:06:38;15.88;;;7.45;;
29984;SDS011;17387;42.690;23.328;2023-05-21T12:09:06;16.77;;;9.20;;
29984;SDS011;17387;42.690;23.328;2023-05-21T12:11:32;12.80;;;6.90;;
29984;SDS011;17387;42.690;23.328;2023-05-21T12:13:57;9.02;;;5.50;;
29984;SDS011;17387;42.690;23.328;2023-05-21T12:16:23;10.93;;;5.32;;
29984;SDS011;17387;42.690;23.328;2023-05-21T12:18:48;19.27;;;11.52;;
29984;SDS011;17387;42.690;23.328;2023-05-21T12:21:14;9.57;;;6.07;;
29984;SDS011;17387;42.690;23.328;2023-05-21T12:23:39;12.37;;;6.60;;
29984;SDS011;17387;42.690;23.328;2023-05-21T12:26:05;9.23;;;6.13;;
29984;SDS011;17387;42.690;23.328;2023-05-21T12:28:30;17.85;;;9.73;;
29984;SDS011;17387;42.690;23.328;2023-05-21T12:30:56;19.48;;;10.65;;
29984;SDS011;17387;42.690;23.328;2023-05-21T12:33:21;8.80;;;6.25;;
29984;SDS011;17387;42.690;23.328;2023-05-21T12:35:50;24.42;;;8.60;;
29984;SDS011;17387;42.690;23.328;2023-05-21T12:38:25;11.95;;;6.45;;
29984;SDS011;17387;42.690;23.328;2023-05-21T12:40:53;10.30;;;5.95;;
29984;SDS011;17387;42.690;23.328;2023-05-21T12:43:19;11.30;;;6.15;;
29984;SDS011;17387;42.690;23.328;2023-05-21T12:45:44;14.52;;;7.65;;
29984;SDS011;17387;42.690;23.328;2023-05-21T12:48:10;16.40;;;7.88;;
29984;SDS011;17387;42.690;23.328;2023-05-21T12:50:39;12.00;;;6.60;;
29984;SDS011;17387;42.690;23.328;2023-05-21T12:53:07;18.10;;;7.35;;
29984;SDS011;17387;42.690;23.328;2023-05-21T12:55:32;15.73;;;7.10;;
29984;SDS011;17387;42.690;23.328;2023-05-21T12:58:02;14.50;;;6.78;;
29984;SDS011;17387;42.690;23.328;2023-05-21T13:00:29;10.38;;;7.57;;
29984;SDS011;17387;42.690;23.328;2023-05-21T13:02:55;15.15;;;6.25;;
29984;SDS011;17387;42.690;23.328;2023-05-21T13:05:23;16.90;;;7.13;;
29984;SDS011;17387;42.690;23.328;2023-05-21T13:07:49;11.68;;;6.85;;
29984;SDS011;17387;42.690;23.328;2023-05-21T13:10:18;16.45;;;7.07;;
29984;SDS011;17387;42.690;23.328;2023-05-21T13:12:44;12.52;;;7.38;;
29984;SDS011;17387;42.690;23.328;2023-05-21T13:15:09;18.42;;;11.13;;
29984;SDS011;17387;42.690;23.328;2023-05-21T13:17:34;23.42;;;9.82;;
29984;SDS011;17387;42.690;23.328;2023-05-21T13:20:10;46.33;;;23.17;;
29984;SDS011;17387;42.690;23.328;2023-05-21T13:22:45;16.08;;;8.63;;
29984;SDS011;17387;42.690;23.328;2023-05-21T13:25:11;52.45;;;29.48;;
29984;SDS011;17387;42.690;23.328;2023-05-21T13:27:36;20.42;;;11.25;;
29984;SDS011;17387;42.690;23.328;2023-05-21T13:30:02;43.63;;;22.63;;
29984;SDS011;17387;42.690;23.328;2023-05-21T13:32:27;12.93;;;8.00;;
29984;SDS011;17387;42.690;23.328;2023-05-21T13:34:52;10.07;;;5.87;;
29984;SDS011;17387;42.690;23.328;2023-05-21T13:37:18;11.97;;;6.03;;
29984;SDS011;17387;42.690;23.328;2023-05-21T13:39:44;13.00;;;5.38;;
29984;SDS011;17387;42.690;23.328;2023-05-21T13:42:10;9.85;;;5.32;;
29984;SDS011;17387;42.690;23.328;2023-05-21T13:44:35;13.55;;;6.60;;
29984;SDS011;17387;42.690;23.328;2023-05-21T13:47:04;7.80;;;5.18;;
29984;SDS011;17387;42.690;23.328;2023-05-21T13:49:29;11.82;;;7.05;;
29984;SDS011;17387;42.690;23.328;2023-05-21T13:51:55;15.80;;;6.70;;
29984;SDS011;17387;42.690;23.328;2023-05-21T13:54:22;23.48;;;13.40;;
29984;SDS011;17387;42.690;23.328;2023-05-21T13:56:47;18.90;;;8.98;;
29984;SDS011;17387;42.690;23.328;2023-05-21T13:59:12;8.53;;;5.27;;
29984;SDS011;17387;42.690;23.328;2023-05-21T14:01:37;13.07;;;6.17;;
29984;SDS011;17387;42.690;23.328;2023-05-21T14:04:03;9.27;;;5.73;;
29984;SDS011;17387;42.690;23.328;2023-05-21T14:06:32;10.27;;;6.20;;
29984;SDS011;17387;42.690;23.328;2023-05-21T14:09:00;10.82;;;6.32;;
29984;SDS011;17387;42.690;23.328;2023-05-21T14:11:26;9.93;;;5.78;;
29984;SDS011;17387;42.690;23.328;2023-05-21T14:13:52;11.98;;;4.93;;
29984;SDS011;17387;42.690;23.328;2023-05-21T14:16:17;11.25;;;5.93;;
29984;SDS011;17387;42.690;23.328;2023-05-21T14:18:43;10.55;;;5.55;;
29984;SDS011;17387;42.690;23.328;2023-05-21T14:21:08;13.43;;;6.38;;
29984;SDS011;17387;42.690;23.328;2023-05-21T14:23:33;21.57;;;11.60;;
29984;SDS011;17387;42.690;23.328;2023-05-21T14:25:58;9.10;;;6.00;;
29984;SDS011;17387;42.690;23.328;2023-05-21T14:28:24;10.95;;;5.40;;
29984;SDS011;17387;42.690;23.328;2023-05-21T14:30:49;11.38;;;8.00;;